KRNP

Details ICAO KRNP
Name OWOSSO COMMUNITY
Region United States
Timezone America/Detroit (UTC-5.0)
Plans Departing 5
Arriving 1
Stats Elevation 736 ft / 224 m (AMSL)
Location 42.992976° -84.138412°
Runways 3
Magnetic Variation 6.867° W
Sunrise 2017-12-17 13:03:47 UTC / 2017-12-17 08:03:47 Local
Sunset 2017-12-17 22:04:32 UTC / 2017-12-17 17:04:32 Local
Advertisement - Login to hide

Runways

ID Width Length Bearing (true) Bearing (mag) Surface Threshold Offset Overrun Length
06 130 ft / 40 m 2,479 ft / 756 m 58.45° 65.32° Grass 1,057 ft / 322 m 0 ft / 0 m
10 75 ft / 23 m 4,290 ft / 1,308 m 102.72° 109.59° Asphalt 0 ft / 0 m 0 ft / 0 m
18 260 ft / 79 m 2,603 ft / 793 m 175.59° 182.46° Grass 396 ft / 121 m 0 ft / 0 m
24 130 ft / 40 m 2,479 ft / 756 m 238.45° 245.32° Grass 0 ft / 0 m 0 ft / 0 m
28 75 ft / 23 m 4,290 ft / 1,308 m 282.73° 289.60° Asphalt 0 ft / 0 m 0 ft / 0 m
36 260 ft / 79 m 2,603 ft / 793 m 355.59° 2.46° Grass 990 ft / 302 m 0 ft / 0 m

Map

Weather


0- 5 10 15 20 25 30 35+ Temperature / ° C

Clouds and Precipitation
Forecast for 2017-12-17 18:00 UTC. Updated 27 minutes ago

Ground ~20,000 ft ~40,000 ft Winds

METAR

KRNP 171735Z AUTO 10005KT 10SM OVC010 M02/M05 A3013 RMK AO2 T10211055

TAF

Not found

Frequencies

Recorded 118.02 MHz AWOS 3
Approach 118.80 MHz FLINT APP/DEP
Unicom 123.00 MHz CTAF/UNICOM
Approach 128.55 MHz FLINT APP/DEP
Warning: Do not use this data for real-world aviation or navigation. No guarantee of current accuracy is given.